Lonepine, Louisiana
Current Conditions -  °F | °C
As of 11:35 AM on Saturday 20 Dec 2014 (Local Time) from KACP Reporting Station
Overcast Overcast  
Wind Chill: 52°   Ceiling: 1200
Heat Index: 52°   Visibility: 10mi
Dew Point: 46°   Wind: 12mph
Humidity: 79%   Direction: 10°N
Pressure: 30.2"   Gusts: NA
Location:  30.8509°N, 92.4107°W
Report Text: KACP 201735Z AUTO 01010KT 330V030 10SM OVC012 11/08 A3020 RMK AO2 T01120077
Loading
Personal Weather Stations






























Interactive Weather Map New forecast layout! Learn more

10-Day Weather Forecast

Advertisements
Track Severe Weather on mobile